Time;durP1;ratioP1;P1;durP2;ratioP2;P2;SDS_P1;SDS_P2;PMS_P1;PMS_P2;Temp;Humidity;BMP_temperature;BMP_pressure;BME280_temperature;BME280_humidity;BME280_pressure;Samples;Min_cycle;Max_cycle;Signal;HPM_P1;HPM_P2
2022/05/21 00:02:00;;;;;;;;;;;;;;;;;;5132084;27;20073;-68
2022/05/21 00:04:26;;;;;;;;;;;;;;;;;;5108362;28;20378;-68
2022/05/21 00:06:52;;;;;;;;;;;;;;;;;;5127478;28;19941;-68
2022/05/21 00:09:18;;;;;;;;;;;;;;;;;;5130494;27;20010;-68
2022/05/21 00:11:44;;;;;;;;;;;;;;;;;;5127451;28;19920;-68
2022/05/21 00:14:10;;;;;;;;;;;;;;;;;;5122894;27;19919;-68
2022/05/21 00:16:36;;;;;;;;;;;;;;;;;;5133826;27;20004;-68
2022/05/21 00:19:02;;;;;;;;;;;;;;;;;;5125462;27;20362;-68
2022/05/21 00:21:28;;;;;;;;;;;;;;;;;;5127154;28;19923;-68
2022/05/21 00:23:54;;;;;;;;;;;;;;;;;;5127070;28;19927;-68
2022/05/21 00:26:21;;;;;;;;;;;;;;;;;;5127496;28;19919;-68
2022/05/21 00:28:47;;;;;;;;;;;;;;;;;;5139330;27;19919;-68
2022/05/21 00:31:13;;;;;;;;;;;;;;;;;;5132059;27;19927;-68
2022/05/21 00:33:39;;;;;;;;;;;;;;;;;;5125441;28;19975;-68
2022/05/21 00:36:05;;;;;;;;;;;;;;;;;;5126426;28;19920;-68
2022/05/21 00:38:31;;;;;;;;;;;;;;;;;;5137458;27;19923;-68
2022/05/21 00:40:56;;;;;;;;;;;;;;;;;;5128228;27;20002;-68
2022/05/21 00:43:22;;;;;;;;;;;;;;;;;;5126889;28;19919;-68
2022/05/21 00:45:48;;;;;;;;;;;;;;;;;;5127204;28;19966;-68
2022/05/21 00:48:14;;;;;;;;;;;;;;;;;;5116356;27;19920;-68
2022/05/21 00:50:40;;;;;;;;;;;;;;;;;;5147857;27;19972;-68
2022/05/21 00:53:06;;;;;;;;;;;;;;;;;;5143667;27;20319;-68
2022/05/21 00:55:32;;;;;;;;;;;;;;;;;;5147697;27;19945;-68
2022/05/21 01:00:43;;;;;;;;;;;;;;;;;;5147625;27;19927;-67
2022/05/21 01:03:09;;;;;;;;;;;;;;;;;;5147137;27;19920;-68
2022/05/21 01:05:36;;;;;;;;;;;;;;;;;;5147408;27;20328;-68
2022/05/21 01:08:02;;;;;;;;;;;;;;;;;;5125387;27;20397;-68
2022/05/21 01:10:29;;;;;;;;;;;;;;;;;;5147214;27;19957;-69
2022/05/21 01:12:55;;;;;;;;;;;;;;;;;;5142990;27;19951;-67
2022/05/21 01:15:21;;;;;;;;;;;;;;;;;;5105833;28;19924;-67
2022/05/21 01:17:47;;;;;;;;;;;;;;;;;;5093861;27;20586;-68
2022/05/21 01:20:13;;;;;;;;;;;;;;;;;;5143507;27;19919;-68
2022/05/21 01:22:39;;;;;;;;;;;;;;;;;;5147140;27;19968;-68
2022/05/21 01:25:05;;;;;;;;;;;;;;;;;;5146919;27;19936;-68
2022/05/21 01:27:31;;;;;;;;;;;;;;;;;;5147087;27;19978;-68
2022/05/21 01:29:57;;;;;;;;;;;;;;;;;;5145060;27;19919;-68
2022/05/21 01:32:23;;;;;;;;;;;;;;;;;;5147034;27;19919;-68
2022/05/21 01:34:49;;;;;;;;;;;;;;;;;;5146674;27;19949;-67
2022/05/21 01:37:15;;;;;;;;;;;;;;;;;;5128332;27;19950;-68
2022/05/21 01:39:41;;;;;;;;;;;;;;;;;;5126351;27;19919;-68
2022/05/21 01:42:07;;;;;;;;;;;;;;;;;;5128282;27;20333;-69
2022/05/21 01:44:38;;;;;;;;;;;;;;;;;;5146817;27;19925;-69
2022/05/21 01:47:04;;;;;;;;;;;;;;;;;;5146548;27;20386;-68
2022/05/21 01:49:30;;;;;;;;;;;;;;;;;;5143710;27;19919;-68
2022/05/21 01:51:56;;;;;;;;;;;;;;;;;;5145555;27;19930;-68
2022/05/21 01:54:22;;;;;;;;;;;;;;;;;;5128070;27;20508;-69
2022/05/21 01:56:48;;;;;;;;;;;;;;;;;;5128215;27;20014;-68
2022/05/21 01:59:14;;;;;;;;;;;;;;;;;;5138739;27;20432;-68
2022/05/21 02:01:40;;;;;;;;;;;;;;;;;;5127877;27;19919;-69
2022/05/21 02:04:06;;;;;;;;;;;;;;;;;;5146060;27;19945;-69
2022/05/21 02:06:33;;;;;;;;;;;;;;;;;;5145141;27;20001;-69
2022/05/21 02:08:59;;;;;;;;;;;;;;;;;;5143034;27;20391;-69
2022/05/21 02:11:25;;;;;;;;;;;;;;;;;;5146521;27;19926;-69
2022/05/21 02:13:51;;;;;;;;;;;;;;;;;;5146397;27;19919;-68
2022/05/21 02:16:17;;;;;;;;;;;;;;;;;;5146289;27;19923;-68
2022/05/21 02:18:43;;;;;;;;;;;;;;;;;;5144224;27;19926;-68
2022/05/21 02:21:09;;;;;;;;;;;;;;;;;;5146220;28;19919;-68
2022/05/21 02:23:35;;;;;;;;;;;;;;;;;;5127790;28;19926;-69
2022/05/21 02:26:01;;;;;;;;;;;;;;;;;;5146232;28;19919;-68
2022/05/21 02:28:27;;;;;;;;;;;;;;;;;;5143024;28;19919;-68
2022/05/21 02:30:53;;;;;;;;;;;;;;;;;;5146392;28;19923;-68
2022/05/21 02:33:19;;;;;;;;;;;;;;;;;;5145721;28;20385;-68
2022/05/21 02:35:45;;;;;;;;;;;;;;;;;;5146231;28;19931;-68
2022/05/21 02:40:55;;;;;;;;;;;;;;;;;;5105086;28;19982;-68
2022/05/21 02:43:21;;;;;;;;;;;;;;;;;;5086883;28;20414;-69
2022/05/21 02:45:47;;;;;;;;;;;;;;;;;;5105095;28;19927;-69
2022/05/21 02:48:13;;;;;;;;;;;;;;;;;;5104980;28;19928;-69
2022/05/21 02:50:39;;;;;;;;;;;;;;;;;;5141956;28;19998;-69
2022/05/21 02:53:05;;;;;;;;;;;;;;;;;;5145838;28;20010;-68
2022/05/21 02:55:31;;;;;;;;;;;;;;;;;;5127620;28;19924;-67
2022/05/21 02:57:57;;;;;;;;;;;;;;;;;;5146082;27;19920;-68
2022/05/21 03:00:23;;;;;;;;;;;;;;;;;;5146375;27;20015;-68
2022/05/21 03:02:49;;;;;;;;;;;;;;;;;;5149424;27;19919;-68
2022/05/21 03:05:16;;;;;;;;;;;;;;;;;;5150142;27;19942;-68
2022/05/21 03:07:42;;;;;;;;;;;;;;;;;;5149981;27;19923;-68
2022/05/21 03:10:23;;;;;;;;;;;;;;;;;;5148008;27;20114;-68
2022/05/21 03:12:49;;;;;;;;;;;;;;;;;;5149911;27;20075;-68
2022/05/21 03:15:15;;;;;;;;;;;;;;;;;;5149718;27;19919;-69
2022/05/21 03:17:41;;;;;;;;;;;;;;;;;;5149547;27;19920;-68
2022/05/21 03:20:07;;;;;;;;;;;;;;;;;;5147689;27;19919;-68
2022/05/21 03:22:33;;;;;;;;;;;;;;;;;;5149820;27;19920;-68
2022/05/21 03:24:59;;;;;;;;;;;;;;;;;;5149470;27;19930;-68
2022/05/21 03:27:25;;;;;;;;;;;;;;;;;;5130877;27;19926;-68
2022/05/21 03:29:51;;;;;;;;;;;;;;;;;;5147430;27;19919;-68
2022/05/21 03:32:17;;;;;;;;;;;;;;;;;;5149087;27;19919;-68
2022/05/21 03:34:42;;;;;;;;;;;;;;;;;;5130563;27;19920;-68
2022/05/21 03:37:08;;;;;;;;;;;;;;;;;;5149218;27;19920;-68
2022/05/21 03:39:34;;;;;;;;;;;;;;;;;;5147527;27;19923;-68
2022/05/21 03:42:00;;;;;;;;;;;;;;;;;;5149237;27;19998;-68
2022/05/21 03:44:27;;;;;;;;;;;;;;;;;;5149159;27;19959;-68
2022/05/21 03:46:53;;;;;;;;;;;;;;;;;;5130789;27;19962;-68
2022/05/21 03:49:19;;;;;;;;;;;;;;;;;;5146910;27;20397;-68
2022/05/21 03:51:45;;;;;;;;;;;;;;;;;;5149057;27;20390;-68
2022/05/21 03:54:10;;;;;;;;;;;;;;;;;;5149043;27;19926;-69
2022/05/21 03:56:36;;;;;;;;;;;;;;;;;;5149038;27;19923;-69
2022/05/21 03:59:03;;;;;;;;;;;;;;;;;;5127548;27;19920;-69
2022/05/21 04:01:29;;;;;;;;;;;;;;;;;;5148555;27;20086;-69
2022/05/21 04:03:56;;;;;;;;;;;;;;;;;;5148507;27;19919;-69
2022/05/21 04:06:22;;;;;;;;;;;;;;;;;;5148883;27;19919;-69
2022/05/21 04:08:49;;;;;;;;;;;;;;;;;;5146673;27;19919;-70
2022/05/21 04:11:15;;;;;;;;;;;;;;;;;;5147291;27;19920;-70
2022/05/21 04:13:41;;;;;;;;;;;;;;;;;;5130145;27;19919;-69
2022/05/21 04:16:07;;;;;;;;;;;;;;;;;;5148670;27;19966;-69
2022/05/21 04:18:33;;;;;;;;;;;;;;;;;;5146417;27;20581;-69
2022/05/21 04:20:59;;;;;;;;;;;;;;;;;;5148629;27;19927;-69
2022/05/21 04:23:24;;;;;;;;;;;12.30;99.90;;;;;;5148463;27;19963;-69
2022/05/21 04:25:50;;;;;;;;;;;12.30;99.90;;;;;;5129889;27;19940;-68
2022/05/21 04:28:16;;;;;;;;;;;12.30;99.90;;;;;;5144935;27;19920;-69
2022/05/21 04:30:41;;;;;;;;;;;12.30;99.90;;;;;;5148378;27;20370;-68
2022/05/21 04:33:07;;;;;;;;;;;12.30;99.90;;;;;;5147866;27;19920;-68
2022/05/21 04:38:16;;;;;;;;;;;12.30;99.90;;;;;;5146101;27;19926;-68
2022/05/21 04:40:42;;;;;;;;;;;12.20;99.90;;;;;;5129784;27;19975;-69
2022/05/21 04:43:08;;;;;;;;;;;12.30;99.90;;;;;;5148022;27;19924;-69
2022/05/21 04:45:34;;;;;;;;;;;12.30;99.90;;;;;;5129656;27;19971;-69
2022/05/21 04:48:06;;;;;;;;;;;12.40;99.90;;;;;;5144936;27;19929;-68
2022/05/21 04:50:34;;;;;;;;;;;12.30;99.90;;;;;;5129737;27;19919;-68
2022/05/21 04:52:59;;;;;;;;;;;12.40;99.90;;;;;;5147806;27;19919;-68
2022/05/21 04:55:25;;;;;;;;;;;12.40;99.90;;;;;;5147873;27;19919;-68
2022/05/21 04:57:51;;;;;;;;;;;;;;;;;;5146047;27;19919;-68
2022/05/21 05:00:17;;;;;;;;;;;;;;;;;;5147398;27;19919;-69
2022/05/21 05:02:43;;;;;;;;;;;;;;;;;;5147215;27;19973;-70
2022/05/21 05:05:09;;;;;;;;;;;;;;;;;;5147784;27;19923;-69
2022/05/21 05:07:35;;;;;;;;;;;;;;;;;;5144583;27;19925;-69
2022/05/21 05:10:00;;;;;;;;;;;;;;;;;;5147516;27;19915;-68
2022/05/21 05:12:26;;;;;;;;;;;;;;;;;;5147449;27;20433;-70
2022/05/21 05:14:53;;;;;;;;;;;;;;;;;;5147361;27;19920;-69
2022/05/21 05:17:20;;;;;;;;;;;;;;;;;;5145400;27;19991;-69
2022/05/21 05:19:47;;;;;;;;;;;;;;;;;;5147351;27;19919;-69
2022/05/21 05:22:13;;;;;;;;;;;;;;;;;;5146701;27;20006;-69
2022/05/21 05:24:39;;;;;;;;;;;;;;;;;;5147293;27;19920;-69
2022/05/21 05:27:05;;;;;;;;;;;;;;;;;;5144204;27;20589;-69
2022/05/21 05:29:31;;;;;;;;;;;;;;;;;;5145751;27;19973;-69
2022/05/21 05:31:57;;;;;;;;;;;;;;;;;;5147028;27;20402;-70
2022/05/21 05:34:23;;;;;;;;;;;;;;;;;;5146711;27;20022;-70
2022/05/21 05:36:49;;;;;;;;;;;;;;;;;;5145024;27;19981;-70
2022/05/21 05:39:16;;;;;;;;;;;;;;;;;;5146901;27;20308;-68
2022/05/21 05:41:42;;;;;;;;;;;;;;;;;;5128491;27;19972;-69
2022/05/21 05:44:08;;;;;;;;;;;;;;;;;;5146866;27;19974;-70
2022/05/21 05:46:34;;;;;;;;;;;;;;;;;;5143896;27;19919;-71
2022/05/21 05:49:00;;;;;;;;;;;;;;;;;;5146667;27;19915;-69
2022/05/21 05:51:27;;;;;;;;;;;;;;;;;;5146781;27;19923;-69
2022/05/21 05:53:53;;;;;;;;;;;;;;;;;;5143316;27;19926;-70
2022/05/21 05:56:19;;;;;;;;;;;;;;;;;;5146654;27;19930;-70
2022/05/21 06:01:29;;;;;;;;;;;;;;;;;;5146246;27;19952;-70
2022/05/21 06:03:55;;;;;;;;;;;;;;;;;;5136801;27;19926;-71
2022/05/21 06:06:21;;;;;;;;;;;;;;;;;;5142949;27;19919;-71
2022/05/21 06:08:47;;;;;;;;;;;;;;;;;;5128035;28;19930;-71
2022/05/21 06:11:13;;;;;;;;;;;;;;;;;;5146534;27;19920;-71
2022/05/21 06:13:39;;;;;;;;;;;;;;;;;;5143955;27;19980;-71
2022/05/21 06:16:05;;;;;;;;;;;;;;;;;;5146576;27;19920;-71
2022/05/21 06:18:31;;;;;;;;;;;;;;;;;;5146404;27;19923;-71
2022/05/21 06:20:57;;;;;;;;;;;;;;;;;;5146371;27;19919;-71
2022/05/21 06:23:23;;;;;;;;;;;;;;;;;;5144467;28;19941;-71
2022/05/21 06:25:49;;;;;;;;;;;;;;;;;;5127906;28;19926;-70
2022/05/21 06:28:15;;;;;;;;;;;;;;;;;;5146081;28;19951;-71
2022/05/21 06:30:41;;;;;;;;;;;;;;;;;;5146386;28;19920;-72
2022/05/21 06:33:07;;;;;;;;;;;;;;;;;;5139115;27;19988;-72
2022/05/21 06:35:33;;;;;;;;;;;;;;;;;;5149228;27;20263;-70
2022/05/21 06:37:59;;;;;;;;;;;;;;;;;;5150461;27;19919;-71
2022/05/21 06:40:25;;;;;;;;;;;;;;;;;;5150315;27;19942;-72
2022/05/21 06:42:51;;;;;;;;;;;;;;;;;;5146039;27;19941;-73
2022/05/21 06:45:17;;;;;;;;;;;;;;;;;;5150335;27;19919;-71
2022/05/21 06:47:43;;;;;;;;;;;;;;;;;;5131827;27;19942;-72
2022/05/21 06:50:09;;;;;;;;;;;;;;;;;;5125390;27;19971;-72
2022/05/21 06:52:36;;;;;;;;;;;;;;;;;;5150376;27;19931;-71
2022/05/21 06:55:02;;;;;;;;;;;;;;;;;;5129210;27;19931;-73
2022/05/21 06:57:28;;;;;;;;;;;;;;;;;;5149738;27;20499;-73
2022/05/21 06:59:55;;;;;;;;;;;;;;;;;;5146612;27;19961;-73
2022/05/21 07:02:21;;;;;;;;;;;;;;;;;;5149825;27;19981;-73
2022/05/21 07:07:43;;;;;;;;;;;;;;;;;;5149893;27;20508;-72
2022/05/21 07:10:09;;;;;;;;;;;;;;;;;;5147630;27;19927;-73
2022/05/21 07:12:35;;;;;;;;;;;;;;;;;;5149927;27;20401;-74
2022/05/21 07:15:01;;;;;;;;;;;;;;;;;;5149835;27;20287;-72
2022/05/21 07:17:27;;;;;;;;;;;;;;;;;;5149650;27;19991;-73
2022/05/21 07:19:53;;;;;;;;;;;;;;;;;;5147774;27;19919;-74
2022/05/21 07:22:19;;;;;;;;;;;;;;;;;;5149698;27;19929;-73
2022/05/21 07:24:45;;;;;;;;;;;;;;;;;;5123942;27;19983;-73
2022/05/21 07:27:12;;;;;;;;;;;;;;;;;;5121793;27;19919;-73
2022/05/21 07:29:38;;;;;;;;;;;;;;;;;;5130875;27;19958;-73
2022/05/21 07:32:04;;;;;;;;;;;;;;;;;;5114373;28;19927;-73
2022/05/21 07:34:30;;;;;;;;;;;;;;;;;;5121882;27;19927;-73
2022/05/21 07:36:56;;;;;;;;;;;;;;;;;;5133255;27;20385;-73
2022/05/21 07:39:22;;;;;;;;;;;;;;;;;;5107128;28;19920;-72
2022/05/21 07:41:48;;;;;;;;;;;;;;;;;;5134523;27;19941;-73
2022/05/21 07:44:14;;;;;;;;;;;;;;;;;;5120241;27;19919;-72
2022/05/21 07:46:40;;;;;;;;;;;;;;;;;;5124482;27;19930;-73
2022/05/21 07:49:06;;;;;;;;;;;;;;;;;;5115969;27;19995;-73
2022/05/21 07:51:32;;;;;;;;;;;;;;;;;;5117989;27;19920;-74
2022/05/21 07:53:58;;;;;;;;;;;;;;;;;;5101348;28;19978;-74
2022/05/21 07:56:25;;;;;;;;;;;;;;;;;;5118509;27;19920;-73
2022/05/21 07:58:51;;;;;;;;;;;;;;;;;;5129357;27;19920;-74
2022/05/21 08:01:17;;;;;;;;;;;;;;;;;;5121037;28;19955;-73
2022/05/21 08:03:43;;;;;;;;;;;;;;;;;;5152240;27;19971;-73
2022/05/21 08:06:09;;;;;;;;;;;;;;;;;;5120914;27;19923;-73
2022/05/21 08:08:35;;;;;;;;;;;;;;;;;;5122684;27;19929;-73
2022/05/21 08:11:01;;;;;;;;;;;;;;;;;;5129968;27;19919;-73
2022/05/21 08:13:27;;;;;;;;;;;;;;;;;;5125377;27;19926;-72
2022/05/21 08:15:53;;;;;;;;;;;;;;;;;;5122388;27;19949;-72
2022/05/21 08:18:19;;;;;;;;;;;;;;;;;;5131917;27;19975;-72
2022/05/21 08:20:45;;;;;;;;;;;;;;;;;;5148311;27;19919;-72
2022/05/21 08:28:40;;;;;;;;;;;;;;;;;;5129389;27;19920;-71
2022/05/21 08:31:06;;;;;;;;;;;;;;;;;;5127754;28;19926;-71
2022/05/21 08:33:32;;;;;;;;;;;;;;;;;;5140236;27;19919;-71
2022/05/21 08:35:58;;;;;;;;;;;;;;;;;;5147254;27;19949;-70
2022/05/21 08:38:24;;;;;;;;;;;;;;;;;;5146331;27;19919;-71
2022/05/21 08:40:50;;;;;;;;;;;;;;;;;;5147945;27;19927;-71
2022/05/21 08:43:16;;;;;;;;;;;;;;;;;;5130119;27;19920;-71
2022/05/21 08:45:42;;;;;;;;;;;;;;;;;;5109193;27;19927;-72
2022/05/21 08:48:08;;;;;;;;;;;;;;;;;;5125871;27;19933;-71
2022/05/21 08:50:34;;;;;;;;;;;;;;;;;;5143727;27;19923;-71
2022/05/21 08:53:00;;;;;;;;;;;;;;;;;;5129197;27;19919;-70
2022/05/21 08:55:26;;;;;;;;;;;;;;;;;;5147720;27;19920;-70
2022/05/21 08:57:52;;;;;;;;;;;;;;;;;;5147488;27;19926;-72
2022/05/21 09:00:18;;;;;;;;;;;;;;;;;;5128829;27;19923;-70
2022/05/21 09:02:44;;;;;;;;;;;;;;;;;;5126473;28;19920;-70
2022/05/21 09:05:10;;;;;;;;;;;;;;;;;;5136822;27;19973;-70
2022/05/21 09:07:38;;;;;;;;;;;;;;;;;;5147579;27;19927;-70
2022/05/21 09:10:04;;;;;;;;;;;;;;;;;;5124802;27;19980;-71
2022/05/21 09:12:30;;;;;;;;;;;;;;;;;;5124352;28;19923;-71
2022/05/21 09:14:56;;;;;;;;;;;;;;;;;;5123256;27;19972;-70
2022/05/21 09:17:24;;;;;;;;;;;;;;;;;;5125315;27;20027;-70
2022/05/21 09:19:50;;;;;;;;;;;;;;;;;;5127680;27;19919;-70
2022/05/21 09:22:16;;;;;;;;;;;;;;;;;;5132479;27;20126;-70
2022/05/21 09:24:42;;;;;;;;;;;;;;;;;;5121893;28;19980;-70
2022/05/21 09:27:08;;;;;;;;;;;;;;;;;;5130523;27;19996;-70
2022/05/21 09:29:35;;;;;;;;;;;;;;;;;;5125602;28;20390;-70
2022/05/21 09:32:01;;;;;;;;;;;;;;;;;;5124637;28;19920;-70
2022/05/21 09:34:27;;;;;;;;;;;;;;;;;;5151913;27;19924;-70
2022/05/21 09:36:53;;;;;;;;;;;;;;;;;;5122787;27;20399;-70
2022/05/21 09:39:19;;;;;;;;;;;;;;;;;;5123887;28;19919;-69
2022/05/21 09:41:45;;;;;;;;;;;;;;;;;;5106141;28;19945;-70
2022/05/21 09:46:56;;;;;;;;;;;;;;;;;;5129129;27;19940;-70
2022/05/21 09:49:22;;;;;;;;;;;;;;;;;;5123419;27;19919;-70
2022/05/21 09:51:48;;;;;;;;;;;;;;;;;;5097454;27;19931;-69
2022/05/21 09:54:14;;;;;;;;;;;;;;;;;;5103087;27;19927;-70
2022/05/21 09:56:40;;;;;;;;;;;;;;;;;;5120022;27;19973;-70
2022/05/21 09:59:06;;;;;;;;;;;;;;;;;;5138765;27;20359;-70
2022/05/21 10:01:32;;;;;;;;;;;;;;;;;;5143066;27;19919;-69
2022/05/21 10:03:58;;;;;;;;;;;;;;;;;;5123861;28;19959;-68
2022/05/21 10:06:24;;;;;;;;;;;;;;;;;;5119703;28;20025;-68
2022/05/21 10:11:35;;;;;;;;;;;;;;;;;;5119063;27;20027;-69
2022/05/21 10:14:01;;;;;;;;;;;;;;;;;;5122511;27;19919;-69
2022/05/21 10:16:27;;;;;;;;;;;;;;;;;;5110448;28;19927;-69
2022/05/21 10:18:53;;;;;;;;;;;;;;;;;;5110035;28;19927;-69
2022/05/21 10:21:19;;;;;;;;;;;;;;;;;;5091984;28;19924;-68
2022/05/21 10:23:45;;;;;;;;;;;;;;;;;;5111458;28;19926;-68
2022/05/21 10:26:11;;;;;;;;;;;;;;;;;;5110564;28;20052;-68
2022/05/21 10:28:37;;;;;;;;;;;;;;;;;;5108439;28;19923;-69
2022/05/21 10:31:03;;;;;;;;;;;;;;;;;;5114170;28;20007;-70
2022/05/21 10:33:29;;;;;;;;;;;;;;;;;;5109506;28;19973;-69
2022/05/21 10:35:56;;;;;;;;;;;;;;;;;;5116130;28;19919;-69
2022/05/21 10:38:22;;;;;;;;;;;;;;;;;;5114547;28;19948;-69
2022/05/21 10:40:48;;;;;;;;;;;;;;;;;;5133386;28;19928;-69
2022/05/21 10:43:14;;;;;;;;;;;;;;;;;;5118680;28;19949;-68
2022/05/21 10:45:40;;;;;;;;;;;;;;;;;;5115613;28;19941;-69
2022/05/21 10:48:06;;;;;;;;;;;;;;;;;;5091252;28;19919;-69
2022/05/21 10:50:32;;;;;;;;;;;;;;;;;;5114971;28;19934;-69
2022/05/21 10:52:58;;;;;;;;;;;;;;;;;;5119434;28;19916;-69
2022/05/21 10:55:24;;;;;;;;;;;;;;;;;;5124359;28;19920;-68
2022/05/21 10:57:50;;;;;;;;;;;;;;;;;;5099929;28;20018;-69
2022/05/21 11:00:17;;;;;;;;;;;;;;;;;;5111691;28;19923;-69
2022/05/21 11:02:43;;;;;;;;;;;;;;;;;;5123838;28;20467;-68
2022/05/21 11:05:09;;;;;;;;;;;;;;;;;;5114915;28;19920;-69
2022/05/21 11:07:35;;;;;;;;;;;;;;;;;;5122751;28;19986;-69
2022/05/21 11:10:01;;;;;;;;;;;;;;;;;;5124119;28;19920;-69
2022/05/21 11:12:27;;;;;;;;;;;;;;;;;;5143175;27;19923;-69
2022/05/21 11:14:54;;;;;;;;;;;;;;;;;;5111776;28;19958;-69
2022/05/21 11:17:20;;;;;;;;;;;;;;;;;;5114478;28;20523;-69
2022/05/21 11:19:46;;;;;;;;;;;;;;;;;;5113937;27;19920;-69
2022/05/21 11:22:12;;;;;;;;;;;;;;;;;;5120930;27;19920;-71
2022/05/21 11:24:38;;;;;;;;;;;;;;;;;;5118509;27;19937;-70
2022/05/21 11:27:04;;;;;;;;;;;;;;;;;;5116921;27;19923;-75
2022/05/21 11:29:30;;;;;;;;;;;;;;;;;;5119418;27;19941;-77
2022/05/21 11:37:25;;;;;;;;;;;;;;;;;;5126631;27;19970;-69
2022/05/21 11:39:51;;;;;;;;;;;;;;;;;;5116827;27;19926;-74
2022/05/21 11:42:17;;;;;;;;;;;;;;;;;;5119763;27;19935;-69
2022/05/21 11:44:55;;;;;;;;;;;;;;;;;;5115448;27;19927;-70
2022/05/21 11:47:21;;;;;;;;;;;;;;;;;;5116324;27;20003;-74
2022/05/21 11:49:47;;;;;;;;;;;;;;;;;;5122227;27;19924;-77
2022/05/21 11:52:13;;;;;;;;;;;;;;;;;;5121957;27;20009;-73
2022/05/21 11:54:39;;;;;;;;;;;;;;;;;;5106648;28;19931;-74
2022/05/21 11:57:05;;;;;;;;;;;;;;;;;;5146824;27;19919;-77
2022/05/21 11:59:31;;;;;;;;;;;;;;;;;;5128515;27;19927;-76
2022/05/21 12:02:00;;;;;;;;;;;;;;;;;;5131637;27;19987;-74
2022/05/21 12:04:26;;;;;;;;;;;;;;;;;;5129432;27;19919;-73
2022/05/21 12:06:52;;;;;;;;;;;;;;;;;;5123485;27;19946;-73
2022/05/21 12:09:18;;;;;;;;;;;;;;;;;;5117182;27;20272;-74
2022/05/21 12:11:44;;;;;;;;;;;;;;;;;;5124507;28;19979;-68
2022/05/21 12:14:10;;;;;;;;;;;;;;;;;;5118775;27;19919;-71
2022/05/21 12:16:36;;;;;;;;;;;;;;;;;;5126299;27;19927;-67
2022/05/21 12:19:02;;;;;;;;;;;;;;;;;;5126507;28;19919;-65
2022/05/21 12:21:34;;;;;;;;;;;;;;;;;;5127627;28;19928;-69
2022/05/21 12:24:00;;;;;;;;;;;;;;;;;;5129521;27;19920;-67
2022/05/21 12:26:26;;;;;;;;;;;;;;;;;;5131910;27;19920;-67
2022/05/21 12:28:52;;;;;;;;;;;;;;;;;;5131150;27;20000;-68
2022/05/21 12:31:19;;;;;;;;;;;;;;;;;;5123844;28;20667;-69
2022/05/21 12:33:45;;;;;;;;;;;;;;;;;;5126770;27;19971;-69
2022/05/21 12:36:11;;;;;;;;;;;;;;;;;;5131183;27;19920;-67
2022/05/21 12:38:37;;;;;;;;;;;;;;;;;;5133643;27;19931;-68
2022/05/21 12:41:03;;;;;;;;;;;;;;;;;;5141294;27;20082;-64
2022/05/21 12:43:29;;;;;;;;;;;;;;;;;;5130141;27;19923;-65
2022/05/21 12:45:55;;;;;;;;;;;;;;;;;;5129160;27;19916;-65
2022/05/21 12:48:21;;;;;;;;;;;;;;;;;;5126989;27;21503;-64
2022/05/21 12:50:47;;;;;;;;;;;;;;;;;;5132289;27;20417;-65
2022/05/21 12:53:13;;;;;;;;;;;;;;;;;;5113155;28;19965;-65
2022/05/21 12:55:39;;;;;;;;;;;;;;;;;;5142116;27;19955;-67
2022/05/21 12:58:05;;;;;;;;;;;;;;;;;;5114207;27;19927;-65
2022/05/21 13:00:31;;;;;;;;;;;;;;;;;;5124351;28;19967;-66
2022/05/21 13:02:58;;;;;;;;;;;;;;;;;;5123071;28;19927;-68
2022/05/21 13:05:25;;;;;;;;;;;;;;;;;;5142825;27;19943;-73
2022/05/21 13:07:51;;;;;;;;;;;;;;;;;;5136797;27;19978;-71
2022/05/21 13:10:17;;;;;;;;;;;;;;;;;;5127492;27;19927;-63
2022/05/21 13:12:43;;;;;;;;;;;;;;;;;;5131234;27;19919;-66
2022/05/21 13:15:09;;;;;;;;;;;;;;;;;;5127747;27;19944;-64
2022/05/21 13:17:35;;;;;;;;;;;;;;;;;;5129415;27;19920;-64
2022/05/21 13:20:03;;;;;;;;;;;;;;;;;;5120598;27;19923;-67
2022/05/21 13:22:29;;;;;;;;;;;;;;;;;;5128335;27;19995;-71
2022/05/21 13:24:55;;;;;;;;;;;;;;;;;;5120493;28;19916;-77
2022/05/21 13:27:21;;;;;;;;;;;;;;;;;;5134464;27;20398;-75
2022/05/21 13:29:47;;;;;;;;;;;;;;;;;;5097440;28;19977;-77
2022/05/21 13:32:13;;;;;;;;;;;;;;;;;;5117907;28;19963;-62
2022/05/21 13:34:39;;;;;;;;;;;;;;;;;;5129074;27;19923;-61
2022/05/21 13:37:05;;;;;;;;;;;;;;;;;;5126625;28;19955;-65
2022/05/21 13:39:31;;;;;;;;;;;;;;;;;;5126505;27;20083;-65
2022/05/21 13:41:57;;;;;;;;;;;;;;;;;;5126116;28;19994;-65
2022/05/21 13:44:26;;;;;;;;;;;;;;;;;;5128125;27;19997;-67
2022/05/21 13:46:52;;;;;;;;;;;;;;;;;;5122009;28;19928;-66
2022/05/21 13:49:18;;;;;;;;;;;;;;;;;;5124190;28;19927;-65
2022/05/21 13:51:44;;;;;;;;;;;;;;;;;;5122803;27;19931;-66
2022/05/21 13:54:10;;;;;;;;;;;;;;;;;;5126247;28;19920;-66
2022/05/21 13:56:36;;;;;;;;;;;;;;;;;;5123441;28;19934;-63
2022/05/21 13:59:02;;;;;;;;;;;;;;;;;;5119577;28;19926;-62
2022/05/21 14:01:29;;;;;;;;;;;;;;;;;;5123424;27;19931;-61
2022/05/21 14:03:55;;;;;;;;;;;;;;;;;;5122102;28;19919;-62
2022/05/21 14:06:21;;;;;;;;;;;;;;;;;;5114793;28;20291;-63
2022/05/21 14:08:47;;;;;;;;;;;;;;;;;;5124287;28;19919;-66
2022/05/21 14:11:14;;;;;;;;;;;;;;;;;;5125770;28;19926;-66
2022/05/21 14:13:40;;;;;;;;;;;;;;;;;;5125098;28;20012;-66
2022/05/21 14:16:06;;;;;;;;;;;;;;;;;;5124967;28;19920;-65
2022/05/21 14:18:32;;;;;;;;;;;;;;;;;;5125144;28;19938;-65
2022/05/21 14:20:58;;;;;;;;;;;;;;;;;;5138991;27;19926;-70
2022/05/21 14:23:25;;;;;;;;;;;;;;;;;;5122570;28;19920;-63
2022/05/21 14:25:51;;;;;;;;;;;;;;;;;;5119081;28;19938;-63
2022/05/21 14:28:17;;;;;;;;;;;;;;;;;;5113523;28;19932;-63
2022/05/21 14:30:43;;;;;;;;;;;;;;;;;;5112598;28;19977;-78
2022/05/21 14:33:09;;;;;;;;;;;;;;;;;;5115380;28;19932;-68
2022/05/21 14:35:35;;;;;;;;;;;;;;;;;;5116360;28;19923;-69
2022/05/21 14:38:02;;;;;;;;;;;;;;;;;;5111428;28;20456;-69
2022/05/21 14:40:28;;;;;;;;;;;;;;;;;;5107768;28;21343;-70
2022/05/21 14:42:54;;;;;;;;;;;;;;;;;;5124899;28;20035;-73
2022/05/21 14:45:20;;;;;;;;;;;;;;;;;;5106568;28;20375;-72
2022/05/21 14:47:52;;;;;;;;;;;;;;;;;;5121444;28;19920;-73
2022/05/21 14:53:03;;;;;;;;;;;;;;;;;;5118550;28;20302;-72
2022/05/21 14:55:29;;;;;;;;;;;;;;;;;;5116106;28;19951;-67
2022/05/21 14:57:57;;;;;;;;;;;;;;;;;;5131762;27;20282;-71
2022/05/21 15:00:23;;;;;;;;;;;;;;;;;;5115295;27;20282;-65
2022/05/21 15:02:49;;;;;;;;;;;;;;;;;;5123152;27;19991;-65
2022/05/21 15:05:15;;;;;;;;;;;;;;;;;;5117023;27;19928;-65
2022/05/21 15:07:46;;;;;;;;;;;;;;;;;;5122845;27;19961;-64
2022/05/21 15:10:12;;;;;;;;;;;;;;;;;;5119447;28;19919;-65
2022/05/21 15:12:38;;;;;;;;;;;;;;;;;;5111837;27;19927;-65
2022/05/21 15:15:04;;;;;;;;;;;;;;;;;;5107774;28;19954;-65
2022/05/21 15:17:30;;;;;;;;;;;;;;;;;;5109081;28;19920;-65
2022/05/21 15:19:56;;;;;;;;;;;;;;;;;;5107286;28;19935;-64
2022/05/21 15:22:22;;;;;;;;;;;;;;;;;;5116074;27;19927;-65
2022/05/21 15:24:48;;;;;;;;;;;;;;;;;;5121936;27;19934;-65
2022/05/21 15:27:15;;;;;;;;;;;;;;;;;;5114007;27;19920;-65
2022/05/21 15:29:41;;;;;;;;;;;;;;;;;;5104193;27;19926;-65
2022/05/21 15:32:08;;;;;;;;;;;;;;;;;;5125828;27;19928;-65
2022/05/21 15:34:34;;;;;;;;;;;;;;;;;;5113681;27;20331;-64
2022/05/21 15:37:00;;;;;;;;;;;;;;;;;;5121065;28;19920;-65
2022/05/21 15:39:26;;;;;;;;;;;;;;;;;;5124432;27;19923;-65
2022/05/21 15:41:52;;;;;;;;;;;;;;;;;;5144082;27;19919;-65
2022/05/21 15:44:18;;;;;;;;;;;;;;;;;;5149096;27;20382;-65
2022/05/21 15:46:44;;;;;;;;;;;;;;;;;;5132587;27;19919;-65
2022/05/21 15:49:11;;;;;;;;;;;;;;;;;;5125461;27;20241;-65
2022/05/21 15:51:37;;;;;;;;;;;;;;;;;;5122863;27;19927;-65
2022/05/21 15:54:03;;;;;;;;;;;;;;;;;;5124338;27;19946;-65
2022/05/21 15:56:30;;;;;;;;;;;;;;;;;;5127549;27;19920;-65
2022/05/21 15:58:56;;;;;;;;;;;;;;;;;;5126423;28;19922;-65
2022/05/21 16:01:22;;;;;;;;;;;;;;;;;;5122816;27;19935;-65
2022/05/21 16:03:49;;;;;;;;;;;;;;;;;;5123368;27;19920;-70
2022/05/21 16:06:15;;;;;;;;;;;;;;;;;;5126458;27;19923;-68
2022/05/21 16:08:41;;;;;;;;;;;;;;;;;;5128850;27;19930;-69
2022/05/21 16:11:07;;;;;;;;;;;;;;;;;;5119360;27;19989;-70
2022/05/21 16:13:35;;;;;;;;;;;;;;;;;;5124249;27;19927;-69
2022/05/21 16:16:01;;;;;;;;;;;;;;;;;;5123507;27;19928;-69
2022/05/21 16:18:27;;;;;;;;;;;;;;;;;;5128497;27;19961;-69
2022/05/21 16:20:53;;;;;;;;;;;;;;;;;;5127878;28;19920;-70
2022/05/21 16:23:19;;;;;;;;;;;;;;;;;;5127198;28;20248;-70
2022/05/21 16:25:45;;;;;;;;;;;;;;;;;;5124535;28;19919;-70
2022/05/21 16:28:11;;;;;;;;;;;;;;;;;;5131717;27;19934;-69
2022/05/21 16:30:37;;;;;;;;;;;;;;;;;;5129825;27;19919;-69
2022/05/21 16:33:03;;;;;;;;;;;;;;;;;;5141321;27;19927;-69
2022/05/21 16:35:29;;;;;;;;;;;;;;;;;;5126856;28;19923;-69
2022/05/21 16:37:55;;;;;;;;;;;;;;;;;;5133530;27;19926;-69
2022/05/21 16:40:21;;;;;;;;;;;;;;;;;;5128041;27;20386;-69
2022/05/21 16:42:47;;;;;;;;;;;;;;;;;;5123506;27;19931;-68
2022/05/21 16:45:13;;;;;;;;;;;;;;;;;;5128081;27;19927;-69
2022/05/21 16:47:39;;;;;;;;;;;;;;;;;;5106186;28;19923;-69
2022/05/21 16:50:05;;;;;;;;;;;;;;;;;;5120128;28;19919;-69
2022/05/21 16:52:31;;;;;;;;;;;;;;;;;;5118463;27;19932;-69
2022/05/21 16:54:57;;;;;;;;;;;;;;;;;;5127153;27;19924;-69
2022/05/21 16:57:23;;;;;;;;;;;;;;;;;;5123819;27;19928;-69
2022/05/21 16:59:49;;;;;;;;;;;;;;;;;;5123767;27;19927;-69
2022/05/21 17:02:15;;;;;;;;;;;;;;;;;;5127354;27;20479;-69
2022/05/21 17:04:41;;;;;;;;;;;;;;;;;;5125701;28;19920;-69